| time (UTC) | temp F | wind direction | speed MPH | gust MPH | rain 1hr in | rain 24hr in | rain mn in | humidity % | barometer mb |
| 20260510010020 | 57 | 210 | 3.0 | 4.0 | 0.00 | 0.00 | 0.00 | 69 | 1007.7 |
| 20260510005516 | 58 | 247 | 5.0 | 7.0 | 0.00 | 0.00 | 0.00 | 67 | 1007.7 |
| 20260510005014 | 58 | 264 | 3.0 | 4.0 | 0.00 | 0.00 | 0.00 | 67 | 1007.4 |
| 20260510004511 | 58 | 281 | 2.0 | 4.0 | 0.00 | 0.00 | 0.00 | 66 | 1007.2 |
| 20260510004009 | 58 | 67 | 2.0 | 2.0 | 0.00 | 0.00 | 0.00 | 67 | 1007.2 |
| 20260510003505 | 58 | 55 | 1.0 | 1.0 | 0.00 | 0.00 | 0.00 | 66 | 1007.4 |
| 20260510003001 | 58 | 89 | 2.0 | 2.0 | 0.00 | 0.00 | 0.00 | 66 | 1007.1 |
| 20260510002457 | 58 | 31 | 4.0 | 6.0 | 0.00 | 0.00 | 0.00 | 66 | 1007.2 |
| 20260510001953 | 58 | 314 | 3.0 | 4.0 | 0.00 | 0.00 | 0.00 | 66 | 1007.1 |
| 20260510001451 | 59 | 78 | 1.0 | 1.0 | 0.00 | 0.00 | 0.00 | 67 | 1007.1 |
| 20260510000949 | 59 | 203 | 4.0 | 4.0 | 0.00 | 0.00 | 0.00 | 67 | 1006.9 |
| 20260510000444 | 59 | 240 | 3.0 | 3.0 | 0.00 | 0.00 | 0.00 | 66 | 1007.1 |
| 20260509235941 | 59 | 270 | 2.0 | 2.0 | 0.00 | 0.00 | 0.00 | 67 | 1006.9 |
| 20260509235437 | 59 | 235 | 3.0 | 4.0 | 0.00 | 0.00 | 0.00 | 68 | 1006.7 |
| 20260509234934 | 58 | 271 | 2.0 | 3.0 | 0.00 | 0.00 | 0.00 | 72 | 1007.2 |
| 20260509234431 | 59 | 259 | 0.0 | 1.0 | 0.00 | 0.00 | 0.00 | 74 | 1007.2 |
| 20260509233929 | 59 | 317 | 2.0 | 3.0 | 0.00 | 0.00 | 0.00 | 70 | 1007.1 |
| 20260509233426 | 59 | 120 | 2.0 | 2.0 | 0.00 | 0.00 | 0.00 | 73 | 1006.9 |
| 20260509232922 | 59 | 237 | 2.0 | 3.0 | 0.00 | 0.00 | 0.00 | 71 | 1007.1 |
| 20260509232420 | 61 | 346 | 2.0 | 3.0 | 0.00 | 0.00 | 0.00 | 69 | 1007.1 |
| 20260509231915 | 61 | 285 | 1.0 | 2.0 | 0.00 | 0.00 | 0.00 | 68 | 1007.1 |
| 20260509231412 | 62 | 271 | 2.0 | 3.0 | 0.00 | 0.00 | 0.00 | 67 | 1006.9 |
| 20260509230911 | 61 | 78 | 1.0 | 2.0 | 0.00 | 0.00 | 0.00 | 67 | 1007.1 |
| 20260509230407 | 62 | 68 | 2.0 | 3.0 | 0.00 | 0.00 | 0.00 | 65 | 1007.1 |
| 20260509225903 | 62 | 45 | 1.0 | 2.0 | 0.00 | 0.00 | 0.00 | 65 | 1006.8 |
| 20260509225400 | 63 | 55 | 0.0 | 2.0 | 0.00 | 0.00 | 0.00 | 62 | 1006.7 |
| 20260509224855 | 62 | 274 | 2.0 | 2.0 | 0.00 | 0.00 | 0.00 | 65 | 1006.8 |
| 20260509224351 | 62 | 273 | 0.0 | 1.0 | 0.00 | 0.00 | 0.00 | 64 | 1006.8 |
| 20260509223849 | 60 | 238 | 3.0 | 7.0 | 0.00 | 0.00 | 0.00 | 65 | 1006.7 |
| 20260509223345 | 60 | 206 | 2.0 | 4.0 | 0.00 | 0.00 | 0.00 | 65 | 1006.7 |
| 20260509222842 | 62 | 89 | 2.0 | 3.0 | 0.00 | 0.00 | 0.00 | 60 | 1007.1 |
| 20260509222337 | 64 | 267 | 3.0 | 3.0 | 0.00 | 0.00 | 0.00 | 56 | 1007.1 |
| 20260509221833 | 64 | 330 | 2.0 | 3.0 | 0.00 | 0.00 | 0.00 | 56 | 1006.7 |
| 20260509221331 | 63 | 75 | 1.0 | 1.0 | 0.00 | 0.00 | 0.00 | 58 | 1006.9 |
| 20260509220830 | 62 | 91 | 1.0 | 1.0 | 0.00 | 0.00 | 0.00 | 58 | 1006.9 |
| 20260509220327 | 63 | 125 | 1.0 | 2.0 | 0.00 | 0.00 | 0.00 | 59 | 1006.8 |
| 20260509215822 | 63 | 158 | 4.0 | 7.0 | 0.00 | 0.00 | 0.00 | 56 | 1006.6 |
| 20260509215320 | 62 | 7 | 1.0 | 1.0 | 0.00 | 0.00 | 0.00 | 61 | 1006.6 |
| 20260509214816 | 62 | 73 | 2.0 | 2.0 | 0.00 | 0.00 | 0.00 | 60 | 1006.7 |
| 20260509214313 | 62 | 20 | 0.0 | 0.0 | 0.00 | 0.00 | 0.00 | 57 | 1006.9 |
| 20260509213810 | 62 | 34 | 0.0 | 1.0 | 0.00 | 0.00 | 0.00 | 59 | 1006.7 |
| 20260509213306 | 62 | 351 | 2.0 | 3.0 | 0.00 | 0.00 | 0.00 | 61 | 1006.8 |
| 20260509212804 | 62 | 285 | 1.0 | 3.0 | 0.00 | 0.00 | 0.00 | 64 | 1006.6 |
| 20260509212301 | 63 | 261 | 1.0 | 1.0 | 0.00 | 0.00 | 0.00 | 63 | 1006.8 |
| 20260509211756 | 63 | 325 | 1.0 | 1.0 | 0.00 | 0.00 | 0.00 | 61 | 1006.6 |
| 20260509211253 | 62 | 1 | 1.0 | 3.0 | 0.00 | 0.00 | 0.00 | 63 | 1006.6 |
| 20260509210749 | 62 | 319 | 3.0 | 4.0 | 0.00 | 0.00 | 0.00 | 62 | 1006.5 |
| 20260509210248 | 62 | 223 | 4.0 | 4.0 | 0.00 | 0.00 | 0.00 | 65 | 1006.6 |
| 20260509205746 | 63 | 13 | 2.0 | 4.0 | 0.00 | 0.00 | 0.00 | 63 | 1006.5 |
| 20260509205241 | 64 | 335 | 1.0 | 3.0 | 0.00 | 0.00 | 0.00 | 61 | 1006.5 |
| 20260509204737 | 64 | 89 | 2.0 | 2.0 | 0.00 | 0.00 | 0.00 | 63 | 1006.3 |
| 20260509204234 | 65 | 111 | 4.0 | 6.0 | 0.00 | 0.00 | 0.00 | 60 | 1006.3 |
| 20260509203730 | 61 | 61 | 1.0 | 2.0 | 0.00 | 0.00 | 0.00 | 66 | 1006.3 |
| 20260509203229 | 64 | 144 | 4.0 | 6.0 | 0.00 | 0.00 | 0.00 | 64 | 1006.2 |
| 20260509202724 | 63 | 125 | 4.0 | 6.0 | 0.00 | 0.00 | 0.00 | 63 | 1006.2 |
| 20260509202220 | 63 | 177 | 1.0 | 2.0 | 0.00 | 0.00 | 0.00 | 66 | 1006.2 |
| 20260509201714 | 62 | 237 | 1.0 | 1.0 | 0.00 | 0.00 | 0.00 | 67 | 1006.1 |
| 20260509201212 | 62 | 130 | 1.0 | 1.0 | 0.00 | 0.00 | 0.00 | 65 | 1006.4 |
| 20260509200709 | 62 | 291 | 1.0 | 2.0 | 0.00 | 0.00 | 0.00 | 66 | 1006.5 |
| 20260509200209 | 63 | 240 | 2.0 | 3.0 | 0.00 | 0.00 | 0.00 | 65 | 1006.3 |
| 20260509195706 | 62 | 90 | 3.0 | 6.0 | 0.00 | 0.00 | 0.00 | 66 | 1006.4 |
| 20260509195201 | 62 | 86 | 4.0 | 6.0 | 0.00 | 0.00 | 0.00 | 68 | 1006.3 |
| 20260509194700 | 60 | 319 | 1.0 | 1.0 | 0.00 | 0.00 | 0.00 | 70 | 1006.5 |
| 20260509194157 | 61 | 187 | 2.0 | 3.0 | 0.00 | 0.00 | 0.00 | 68 | 1006.5 |
| 20260509193654 | 61 | 139 | 2.0 | 4.0 | 0.00 | 0.00 | 0.00 | 68 | 1006.6 |
| 20260509193149 | 62 | 297 | 1.0 | 2.0 | 0.00 | 0.00 | 0.00 | 67 | 1006.7 |
| 20260509192646 | 60 | 86 | 2.0 | 3.0 | 0.00 | 0.00 | 0.00 | 70 | 1006.8 |
| 20260509192141 | 60 | 82 | 2.0 | 2.0 | 0.00 | 0.00 | 0.00 | 69 | 1006.7 |
| 20260509191635 | 59 | 186 | 2.0 | 3.0 | 0.00 | 0.00 | 0.00 | 69 | 1006.8 |
| 20260509191132 | 60 | 340 | 1.0 | 2.0 | 0.00 | 0.00 | 0.00 | 72 | 1006.7 |
| 20260509190629 | 60 | 91 | 1.0 | 2.0 | 0.00 | 0.00 | 0.00 | 71 | 1007.1 |
| 20260509190126 | 62 | 170 | 3.0 | 4.0 | 0.00 | 0.00 | 0.00 | 70 | 1006.9 |
| 20260509185623 | 63 | 79 | 1.0 | 2.0 | 0.00 | 0.00 | 0.00 | 66 | 1006.9 |
| 20260509185119 | 61 | 170 | 2.0 | 3.0 | 0.00 | 0.00 | 0.00 | 72 | 1006.9 |
| 20260509184618 | 61 | 173 | 4.0 | 6.0 | 0.00 | 0.00 | 0.00 | 71 | 1007.1 |
| 20260509184114 | 62 | 238 | 3.0 | 3.0 | 0.00 | 0.00 | 0.00 | 63 | 1007.1 |
| 20260509183609 | 60 | 115 | 7.0 | 10.0 | 0.00 | 0.00 | 0.00 | 70 | 1007.1 |
| 20260509183106 | 60 | 126 | 6.0 | 7.0 | 0.00 | 0.00 | 0.00 | 69 | 1006.9 |
| 20260509182602 | 60 | 358 | 3.0 | 4.0 | 0.00 | 0.00 | 0.00 | 70 | 1006.9 |
| 20260509182059 | 59 | 110 | 1.0 | 2.0 | 0.00 | 0.00 | 0.00 | 72 | 1007.2 |
| 20260509181557 | 61 | 285 | 1.0 | 1.0 | 0.00 | 0.00 | 0.00 | 68 | 1007.3 |
| 20260509181054 | 60 | 270 | 1.0 | 1.0 | 0.00 | 0.00 | 0.00 | 72 | 1007.1 |
| 20260509180549 | 58 | 54 | 2.0 | 3.0 | 0.00 | 0.00 | 0.00 | 75 | 1007.4 |
| 20260509180048 | 58 | 125 | 1.0 | 3.0 | 0.00 | 0.00 | 0.00 | 76 | 1007.6 |
| 20260509175542 | 58 | 121 | 3.0 | 4.0 | 0.00 | 0.00 | 0.00 | 75 | 1007.7 |
| 20260509175040 | 58 | 52 | 3.0 | 3.0 | 0.00 | 0.00 | 0.00 | 77 | 1007.6 |
| 20260509174536 | 58 | 166 | 1.0 | 2.0 | 0.00 | 0.00 | 0.00 | 76 | 1007.5 |
| 20260509174031 | 58 | 26 | 0.0 | 1.0 | 0.00 | 0.00 | 0.00 | 76 | 1007.7 |
| 20260509173526 | 57 | 138 | 2.0 | 3.0 | 0.00 | 0.00 | 0.00 | 78 | 1007.9 |
| 20260509173023 | 57 | 11 | 1.0 | 1.0 | 0.00 | 0.00 | 0.00 | 78 | 1007.9 |
| 20260509172520 | 57 | 15 | 0.0 | 1.0 | 0.00 | 0.00 | 0.00 | 78 | 1007.8 |
| 20260509172015 | 57 | 54 | 0.0 | 1.0 | 0.00 | 0.00 | 0.00 | 79 | 1007.9 |
| 20260509171512 | 56 | 147 | 2.0 | 3.0 | 0.00 | 0.00 | 0.00 | 78 | 1007.8 |
| 20260509171008 | 56 | 60 | 0.0 | 1.0 | 0.00 | 0.00 | 0.00 | 79 | 1008.0 |
| 20260509170504 | 57 | 141 | 2.0 | 2.0 | 0.00 | 0.00 | 0.00 | 77 | 1008.2 |
| 20260509165959 | 57 | 333 | 0.0 | 1.0 | 0.00 | 0.00 | 0.00 | 77 | 1007.8 |
| 20260509165458 | 56 | 23 | 0.0 | 0.0 | 0.00 | 0.00 | 0.00 | 75 | 1007.8 |
| 20260509164955 | 58 | 314 | 1.0 | 2.0 | 0.00 | 0.00 | 0.00 | 72 | 1007.8 |
| 20260509164450 | 59 | 87 | 1.0 | 2.0 | 0.00 | 0.00 | 0.00 | 70 | 1007.8 |
| 20260509163946 | 58 | 304 | 2.0 | 2.0 | 0.00 | 0.00 | 0.00 | 71 | 1007.6 |
| 20260509163444 | 59 | 241 | 4.0 | 6.0 | 0.00 | 0.00 | 0.00 | 74 | 1007.6 |
| 20260509162943 | 59 | 98 | 6.0 | 7.0 | 0.00 | 0.00 | 0.00 | 72 | 1007.7 |
| 20260509162442 | 59 | 330 | 1.0 | 1.0 | 0.00 | 0.00 | 0.00 | 69 | 1007.7 |
| 20260509161938 | 57 | 95 | 1.0 | 1.0 | 0.00 | 0.00 | 0.00 | 76 | 1007.6 |
| 20260509161434 | 57 | 251 | 2.0 | 3.0 | 0.00 | 0.00 | 0.00 | 74 | 1007.4 |
| 20260509160930 | 57 | 88 | 1.0 | 2.0 | 0.00 | 0.00 | 0.00 | 75 | 1007.6 |
| 20260509160426 | 57 | 6 | 1.0 | 1.0 | 0.00 | 0.00 | 0.00 | 77 | 1007.6 |
| 20260509155921 | 56 | 266 | 0.0 | 1.0 | 0.00 | 0.00 | 0.00 | 78 | 1007.6 |
| 20260509155418 | 56 | 229 | 2.0 | 3.0 | 0.00 | 0.00 | 0.00 | 75 | 1007.7 |
| 20260509154914 | 56 | 117 | 2.0 | 3.0 | 0.00 | 0.00 | 0.00 | 75 | 1007.7 |
| 20260509154411 | 55 | 99 | 2.0 | 2.0 | 0.00 | 0.00 | 0.00 | 77 | 1007.8 |
| 20260509153907 | 56 | 114 | 2.0 | 3.0 | 0.00 | 0.00 | 0.00 | 76 | 1007.7 |
| 20260509153405 | 55 | 92 | 0.0 | 1.0 | 0.00 | 0.00 | 0.00 | 77 | 1007.7 |
| 20260509152902 | 57 | 9 | 1.0 | 1.0 | 0.00 | 0.00 | 0.00 | 75 | 1007.8 |
| 20260509152357 | 56 | 103 | 1.0 | 2.0 | 0.00 | 0.00 | 0.00 | 78 | 1007.5 |
| 20260509151855 | 56 | 79 | 1.0 | 1.0 | 0.00 | 0.00 | 0.00 | 75 | 1007.6 |
| 20260509151350 | 55 | 119 | 4.0 | 4.0 | 0.00 | 0.00 | 0.00 | 76 | 1007.7 |
| 20260509150849 | 53 | 51 | 1.0 | 2.0 | 0.00 | 0.00 | 0.00 | 80 | 1007.2 |
| 20260509150347 | 57 | 24 | 0.0 | 0.0 | 0.00 | 0.00 | 0.00 | 75 | 1007.2 |
| 20260509145844 | 57 | 18 | 0.0 | 0.0 | 0.00 | 0.00 | 0.00 | 72 | 1007.7 |
| 20260509145338 | 57 | 212 | 3.0 | 3.0 | 0.00 | 0.00 | 0.00 | 69 | 1007.7 |
| 20260509144835 | 58 | 282 | 2.0 | 3.0 | 0.00 | 0.00 | 0.00 | 70 | 1007.7 |
| 20260509144332 | 57 | 79 | 1.0 | 1.0 | 0.00 | 0.00 | 0.00 | 71 | 1007.5 |
| 20260509143829 | 58 | 15 | 1.0 | 1.0 | 0.00 | 0.00 | 0.00 | 66 | 1007.5 |
| 20260509143327 | 57 | 311 | 2.0 | 4.0 | 0.00 | 0.00 | 0.00 | 67 | 1007.6 |
| 20260509142822 | 58 | 314 | 1.0 | 2.0 | 0.00 | 0.00 | 0.00 | 69 | 1007.3 |
| 20260509142319 | 58 | 169 | 2.0 | 2.0 | 0.00 | 0.00 | 0.00 | 68 | 1007.4 |
| 20260509141814 | 56 | 358 | 2.0 | 2.0 | 0.00 | 0.00 | 0.00 | 69 | 1007.6 |
| 20260509141312 | 55 | 316 | 1.0 | 2.0 | 0.00 | 0.00 | 0.00 | 70 | 1007.5 |
| 20260509140808 | 55 | 312 | 4.0 | 6.0 | 0.00 | 0.00 | 0.00 | 75 | 1007.4 |
| 20260509140305 | 55 | 302 | 3.0 | 4.0 | 0.00 | 0.00 | 0.00 | 73 | 1007.6 |
| 20260509135803 | 55 | 355 | 2.0 | 3.0 | 0.00 | 0.00 | 0.00 | 74 | 1008.0 |
| 20260509135300 | 54 | 288 | 4.0 | 4.0 | 0.00 | 0.00 | 0.00 | 75 | 1008.0 |
| 20260509134757 | 54 | 280 | 2.0 | 2.0 | 0.00 | 0.00 | 0.00 | 75 | 1007.9 |
| 20260509134255 | 54 | 45 | 1.0 | 1.0 | 0.00 | 0.00 | 0.00 | 75 | 1008.0 |
| 20260509133752 | 54 | 288 | 3.0 | 4.0 | 0.00 | 0.00 | 0.00 | 74 | 1007.9 |
| 20260509133248 | 54 | 232 | 2.0 | 6.0 | 0.00 | 0.00 | 0.00 | 76 | 1008.2 |
| 20260509132747 | 54 | 95 | 5.0 | 10.0 | 0.00 | 0.00 | 0.00 | 76 | 1008.2 |
| 20260509132246 | 54 | 223 | 1.0 | 2.0 | 0.00 | 0.00 | 0.00 | 80 | 1008.2 |
| 20260509131742 | 53 | 91 | 2.0 | 4.0 | 0.00 | 0.00 | 0.00 | 79 | 1008.2 |
| 20260509131239 | 53 | 230 | 2.0 | 3.0 | 0.00 | 0.00 | 0.00 | 79 | 1008.2 |
| 20260509130735 | 53 | 238 | 1.0 | 2.0 | 0.00 | 0.00 | 0.00 | 80 | 1008.2 |
| 20260509130230 | 53 | 355 | 2.0 | 3.0 | 0.00 | 0.00 | 0.00 | 81 | 1007.9 |
| 20260509125727 | 52 | 301 | 2.0 | 3.0 | 0.00 | 0.00 | 0.00 | 79 | 1008.0 |
| 20260509125224 | 52 | 231 | 4.0 | 6.0 | 0.00 | 0.00 | 0.00 | 80 | 1007.9 |
| 20260509124720 | 52 | 258 | 4.0 | 6.0 | 0.00 | 0.00 | 0.00 | 79 | 1008.0 |
| 20260509124218 | 52 | 15 | 2.0 | 3.0 | 0.00 | 0.00 | 0.00 | 79 | 1008.0 |
| 20260509123716 | 52 | 203 | 4.0 | 6.0 | 0.00 | 0.00 | 0.00 | 79 | 1008.0 |
| 20260509123213 | 52 | 304 | 2.0 | 3.0 | 0.00 | 0.00 | 0.00 | 79 | 1007.8 |
| 20260509122708 | 52 | 231 | 2.0 | 2.0 | 0.00 | 0.00 | 0.00 | 79 | 1008.0 |
| 20260509122205 | 52 | 96 | 4.0 | 6.0 | 0.00 | 0.00 | 0.00 | 78 | 1008.0 |
| 20260509121701 | 52 | 274 | 1.0 | 2.0 | 0.00 | 0.00 | 0.00 | 79 | 1008.0 |
| 20260509121159 | 52 | 218 | 3.0 | 6.0 | 0.00 | 0.00 | 0.00 | 78 | 1008.0 |
| 20260509120657 | 52 | 246 | 2.0 | 3.0 | 0.00 | 0.00 | 0.00 | 80 | 1008.2 |
| 20260509120155 | 52 | 286 | 2.0 | 2.0 | 0.00 | 0.00 | 0.00 | 80 | 1008.0 |
| 20260509115652 | 52 | 312 | 0.0 | 1.0 | 0.00 | 0.00 | 0.00 | 80 | 1008.0 |
| 20260509115150 | 51 | 121 | 2.0 | 6.0 | 0.00 | 0.00 | 0.00 | 80 | 1008.2 |
| 20260509114648 | 51 | 334 | 2.0 | 2.0 | 0.00 | 0.00 | 0.00 | 80 | 1008.2 |
| 20260509114147 | 51 | 262 | 3.0 | 8.0 | 0.00 | 0.00 | 0.00 | 79 | 1007.9 |
| 20260509113645 | 51 | 74 | 0.0 | 1.0 | 0.00 | 0.00 | 0.00 | 80 | 1007.8 |
| 20260509113142 | 51 | 233 | 3.0 | 7.0 | 0.00 | 0.00 | 0.00 | 80 | 1008.0 |
| 20260509112638 | 51 | 91 | 4.0 | 6.0 | 0.00 | 0.00 | 0.00 | 80 | 1007.9 |
| 20260509112135 | 51 | 331 | 3.0 | 3.0 | 0.00 | 0.00 | 0.00 | 79 | 1008.0 |
| 20260509111632 | 51 | 122 | 2.0 | 2.0 | 0.00 | 0.00 | 0.00 | 80 | 1007.9 |
| 20260509111129 | 51 | 228 | 4.0 | 6.0 | 0.00 | 0.00 | 0.00 | 79 | 1007.6 |
| 20260509110626 | 51 | 249 | 1.0 | 3.0 | 0.00 | 0.00 | 0.00 | 79 | 1007.8 |
| 20260509110123 | 51 | 300 | 2.0 | 3.0 | 0.00 | 0.00 | 0.00 | 79 | 1007.8 |
| 20260509105621 | 51 | 247 | 4.0 | 6.0 | 0.00 | 0.00 | 0.00 | 79 | 1007.6 |
| 20260509105119 | 51 | 19 | 2.0 | 2.0 | 0.00 | 0.00 | 0.00 | 79 | 1007.9 |
| 20260509104616 | 51 | 264 | 3.0 | 4.0 | 0.00 | 0.00 | 0.00 | 78 | 1007.8 |
| 20260509104112 | 51 | 331 | 1.0 | 1.0 | 0.00 | 0.00 | 0.00 | 78 | 1007.9 |
| 20260509103610 | 51 | 228 | 4.0 | 7.0 | 0.00 | 0.00 | 0.00 | 78 | 1007.8 |
| 20260509103108 | 51 | 243 | 2.0 | 3.0 | 0.00 | 0.00 | 0.00 | 78 | 1007.7 |
| 20260509102605 | 51 | 300 | 5.0 | 7.0 | 0.00 | 0.00 | 0.00 | 78 | 1007.8 |
| 20260509102102 | 51 | 48 | 2.0 | 4.0 | 0.00 | 0.00 | 0.00 | 78 | 1007.9 |
| 20260509101558 | 51 | 249 | 4.0 | 7.0 | 0.00 | 0.00 | 0.00 | 78 | 1007.9 |
| 20260509101055 | 51 | 353 | 4.0 | 6.0 | 0.00 | 0.00 | 0.00 | 78 | 1007.7 |
| 20260509100552 | 51 | 350 | 0.0 | 1.0 | 0.00 | 0.00 | 0.00 | 78 | 1007.8 |
| 20260509100050 | 51 | 0 | 6.0 | 8.0 | 0.00 | 0.00 | 0.00 | 78 | 1007.7 |
| 20260509095546 | 51 | 286 | 3.0 | 6.0 | 0.00 | 0.00 | 0.00 | 78 | 1007.5 |
| 20260509095044 | 51 | 266 | 10.0 | 11.0 | 0.00 | 0.00 | 0.00 | 77 | 1007.7 |
| 20260509094539 | 51 | 329 | 4.0 | 7.0 | 0.00 | 0.00 | 0.00 | 77 | 1008.0 |
| 20260509094037 | 51 | 218 | 6.0 | 13.0 | 0.00 | 0.00 | 0.00 | 77 | 1007.6 |
| 20260509093535 | 51 | 248 | 4.0 | 6.0 | 0.00 | 0.00 | 0.00 | 76 | 1007.6 |
| 20260509093033 | 51 | 324 | 5.0 | 7.0 | 0.00 | 0.00 | 0.00 | 76 | 1007.7 |
| 20260509092530 | 51 | 85 | 3.0 | 4.0 | 0.00 | 0.00 | 0.00 | 76 | 1007.8 |
| 20260509092029 | 51 | 236 | 4.0 | 6.0 | 0.00 | 0.00 | 0.00 | 74 | 1008.0 |
| 20260509091526 | 51 | 280 | 1.0 | 2.0 | 0.00 | 0.00 | 0.00 | 74 | 1008.2 |
| 20260509091022 | 51 | 68 | 2.0 | 2.0 | 0.00 | 0.00 | 0.00 | 74 | 1008.2 |
| 20260509090520 | 51 | 82 | 4.0 | 7.0 | 0.00 | 0.00 | 0.00 | 73 | 1008.2 |
| 20260509090018 | 51 | 90 | 2.0 | 2.0 | 0.00 | 0.00 | 0.00 | 72 | 1007.9 |
| 20260509085514 | 51 | 278 | 6.0 | 10.0 | 0.00 | 0.00 | 0.00 | 73 | 1008.0 |
| 20260509085010 | 51 | 244 | 4.0 | 6.0 | 0.00 | 0.00 | 0.00 | 73 | 1008.0 |
| 20260509084508 | 51 | 207 | 3.0 | 8.0 | 0.00 | 0.00 | 0.00 | 72 | 1008.3 |
| 20260509084005 | 51 | 14 | 1.0 | 2.0 | 0.00 | 0.00 | 0.00 | 72 | 1007.9 |
| 20260509083502 | 51 | 206 | 3.0 | 4.0 | 0.00 | 0.00 | 0.00 | 72 | 1008.0 |
| 20260509082958 | 51 | 352 | 2.0 | 3.0 | 0.00 | 0.00 | 0.00 | 71 | 1007.9 |
| 20260509082456 | 51 | 286 | 5.0 | 7.0 | 0.00 | 0.00 | 0.00 | 71 | 1008.0 |
| 20260509081952 | 51 | 267 | 5.0 | 10.0 | 0.00 | 0.00 | 0.00 | 70 | 1008.0 |
| 20260509081450 | 51 | 251 | 5.0 | 7.0 | 0.00 | 0.00 | 0.00 | 70 | 1008.2 |
| 20260509080947 | 51 | 212 | 3.0 | 4.0 | 0.00 | 0.00 | 0.00 | 69 | 1008.4 |
| 20260509080445 | 51 | 144 | 3.0 | 6.0 | 0.00 | 0.00 | 0.00 | 67 | 1008.4 |
| 20260509075943 | 51 | 222 | 4.0 | 9.0 | 0.00 | 0.00 | 0.00 | 67 | 1008.2 |
| 20260509075439 | 51 | 74 | 3.0 | 3.0 | 0.00 | 0.00 | 0.00 | 67 | 1008.2 |
| 20260509074938 | 51 | 74 | 1.0 | 2.0 | 0.00 | 0.00 | 0.00 | 66 | 1008.5 |
| 20260509074435 | 51 | 327 | 2.0 | 2.0 | 0.00 | 0.00 | 0.00 | 65 | 1008.4 |
| 20260509073931 | 51 | 249 | 5.0 | 6.0 | 0.00 | 0.00 | 0.00 | 64 | 1008.6 |
| 20260509073427 | 51 | 151 | 5.0 | 10.0 | 0.00 | 0.00 | 0.00 | 64 | 1008.5 |
| 20260509072924 | 51 | 62 | 3.0 | 4.0 | 0.00 | 0.00 | 0.00 | 63 | 1008.6 |
| 20260509072421 | 51 | 99 | 2.0 | 2.0 | 0.00 | 0.00 | 0.00 | 64 | 1008.6 |
| 20260509071917 | 51 | 44 | 2.0 | 3.0 | 0.00 | 0.00 | 0.00 | 63 | 1008.5 |
| 20260509071414 | 51 | 188 | 2.0 | 3.0 | 0.00 | 0.00 | 0.00 | 61 | 1008.8 |
| 20260509070912 | 51 | 218 | 2.0 | 4.0 | 0.00 | 0.00 | 0.00 | 60 | 1008.8 |
| 20260509070408 | 51 | 311 | 3.0 | 4.0 | 0.00 | 0.00 | 0.00 | 61 | 1008.9 |
| 20260509065904 | 51 | 121 | 2.0 | 2.0 | 0.00 | 0.00 | 0.00 | 60 | 1008.7 |
| 20260509065400 | 51 | 106 | 4.0 | 6.0 | 0.00 | 0.00 | 0.00 | 61 | 1008.5 |
| 20260509064856 | 51 | 73 | 0.0 | 1.0 | 0.00 | 0.00 | 0.00 | 59 | 1008.9 |
| 20260509064354 | 51 | 102 | 2.0 | 3.0 | 0.00 | 0.00 | 0.00 | 59 | 1008.7 |
| 20260509063852 | 51 | 258 | 2.0 | 3.0 | 0.00 | 0.00 | 0.00 | 59 | 1009.0 |
| 20260509063347 | 51 | 105 | 4.0 | 7.0 | 0.00 | 0.00 | 0.00 | 58 | 1008.8 |
| 20260509062845 | 51 | 210 | 3.0 | 3.0 | 0.00 | 0.00 | 0.00 | 57 | 1009.0 |
| 20260509062342 | 52 | 289 | 2.0 | 4.0 | 0.00 | 0.00 | 0.00 | 58 | 1009.3 |
| 20260509061839 | 52 | 353 | 2.0 | 3.0 | 0.00 | 0.00 | 0.00 | 56 | 1009.3 |
| 20260509061337 | 52 | 321 | 2.0 | 2.0 | 0.00 | 0.00 | 0.00 | 57 | 1009.1 |
| 20260509060833 | 52 | 177 | 3.0 | 3.0 | 0.00 | 0.00 | 0.00 | 55 | 1009.1 |
| 20260509060331 | 52 | 208 | 2.0 | 4.0 | 0.00 | 0.00 | 0.00 | 55 | 1009.0 |
| 20260509055826 | 52 | 180 | 3.0 | 3.0 | 0.00 | 0.00 | 0.00 | 55 | 1009.1 |
| 20260509055327 | 51 | 110 | 3.0 | 6.0 | 0.00 | 0.00 | 0.00 | 54 | 1009.0 |
| 20260509054824 | 51 | 218 | 4.0 | 4.0 | 0.00 | 0.00 | 0.00 | 55 | 1009.0 |
| 20260509054321 | 51 | 66 | 2.0 | 3.0 | 0.00 | 0.00 | 0.00 | 54 | 1009.1 |
| 20260509053819 | 51 | 355 | 2.0 | 3.0 | 0.00 | 0.00 | 0.00 | 54 | 1009.3 |
| 20260509053316 | 51 | 27 | 1.0 | 2.0 | 0.00 | 0.00 | 0.00 | 55 | 1009.4 |
| 20260509052814 | 51 | 245 | 1.0 | 2.0 | 0.00 | 0.00 | 0.00 | 55 | 1009.4 |
| 20260509052311 | 51 | 22 | 3.0 | 4.0 | 0.00 | 0.00 | 0.00 | 56 | 1009.3 |
| 20260509051809 | 50 | 97 | 2.0 | 4.0 | 0.00 | 0.00 | 0.00 | 55 | 1009.1 |
| 20260509051307 | 51 | 72 | 2.0 | 4.0 | 0.00 | 0.00 | 0.00 | 55 | 1009.4 |
| 20260509050803 | 51 | 24 | 2.0 | 3.0 | 0.00 | 0.00 | 0.00 | 55 | 1009.1 |
| 20260509050300 | 50 | 359 | 4.0 | 6.0 | 0.00 | 0.00 | 0.00 | 55 | 1009.5 |
| 20260509045757 | 51 | 52 | 1.0 | 1.0 | 0.00 | 0.00 | 0.00 | 55 | 1009.4 |
| 20260509045254 | 50 | 229 | 1.0 | 2.0 | 0.00 | 0.00 | 0.00 | 56 | 1009.4 |
| 20260509044751 | 51 | 62 | 2.0 | 2.0 | 0.00 | 0.00 | 0.00 | 56 | 1009.5 |
| 20260509044249 | 50 | 281 | 2.0 | 3.0 | 0.00 | 0.00 | 0.00 | 56 | 1009.4 |
| 20260509043745 | 50 | 178 | 1.0 | 2.0 | 0.00 | 0.00 | 0.00 | 57 | 1009.5 |
| 20260509043241 | 50 | 50 | 2.0 | 3.0 | 0.00 | 0.00 | 0.00 | 57 | 1009.5 |
| 20260509042737 | 51 | 60 | 2.0 | 2.0 | 0.00 | 0.00 | 0.00 | 56 | 1009.5 |
| 20260509042233 | 50 | 182 | 3.0 | 4.0 | 0.00 | 0.00 | 0.00 | 56 | 1009.1 |
| 20260509041730 | 50 | 298 | 1.0 | 2.0 | 0.00 | 0.00 | 0.00 | 57 | 1009.4 |
| 20260509041227 | 50 | 283 | 1.0 | 2.0 | 0.00 | 0.00 | 0.00 | 57 | 1009.0 |
| 20260509040726 | 50 | 223 | 3.0 | 3.0 | 0.00 | 0.00 | 0.00 | 58 | 1009.1 |
| 20260509040222 | 50 | 73 | 2.0 | 3.0 | 0.00 | 0.00 | 0.00 | 57 | 1009.4 |
| 20260509035719 | 50 | 23 | 3.0 | 8.0 | 0.00 | 0.00 | 0.00 | 58 | 1009.3 |
| 20260509035216 | 50 | 77 | 2.0 | 2.0 | 0.00 | 0.00 | 0.00 | 58 | 1009.6 |
| 20260509034713 | 50 | 217 | 5.0 | 9.0 | 0.00 | 0.00 | 0.00 | 58 | 1009.6 |
| 20260509034211 | 50 | 52 | 1.0 | 2.0 | 0.00 | 0.00 | 0.00 | 58 | 1009.6 |
| 20260509033707 | 50 | 273 | 2.0 | 3.0 | 0.00 | 0.00 | 0.00 | 58 | 1009.6 |
| 20260509033204 | 51 | 182 | 5.0 | 8.0 | 0.00 | 0.00 | 0.00 | 58 | 1009.4 |
| 20260509032702 | 51 | 150 | 1.0 | 2.0 | 0.00 | 0.00 | 0.00 | 58 | 1009.7 |
| 20260509032158 | 51 | 274 | 1.0 | 2.0 | 0.00 | 0.00 | 0.00 | 58 | 1009.7 |
| 20260509031656 | 51 | 44 | 2.0 | 4.0 | 0.00 | 0.00 | 0.00 | 58 | 1009.7 |
| 20260509031153 | 51 | 190 | 2.0 | 3.0 | 0.00 | 0.00 | 0.00 | 58 | 1009.7 |
| 20260509030652 | 51 | 184 | 3.0 | 4.0 | 0.00 | 0.00 | 0.00 | 57 | 1009.8 |
| 20260509030148 | 51 | 345 | 2.0 | 3.0 | 0.00 | 0.00 | 0.00 | 58 | 1009.5 |
| 20260509025644 | 51 | 14 | 2.0 | 3.0 | 0.00 | 0.00 | 0.00 | 59 | 1009.8 |
| 20260509025141 | 51 | 173 | 3.0 | 3.0 | 0.00 | 0.00 | 0.00 | 58 | 1009.8 |
| 20260509024636 | 51 | 239 | 2.0 | 3.0 | 0.00 | 0.00 | 0.00 | 59 | 1009.8 |
| 20260509024132 | 51 | 143 | 4.0 | 6.0 | 0.00 | 0.00 | 0.00 | 58 | 1010.0 |
| 20260509023630 | 51 | 71 | 2.0 | 2.0 | 0.00 | 0.00 | 0.00 | 58 | 1009.9 |
| 20260509023127 | 51 | 39 | 2.0 | 2.0 | 0.00 | 0.00 | 0.00 | 59 | 1009.9 |
| 20260509022623 | 51 | 108 | 2.0 | 3.0 | 0.00 | 0.00 | 0.00 | 60 | 1009.9 |
| 20260509022121 | 51 | 70 | 2.0 | 2.0 | 0.00 | 0.00 | 0.00 | 59 | 1009.9 |
| 20260509021618 | 51 | 83 | 2.0 | 3.0 | 0.00 | 0.00 | 0.00 | 58 | 1009.9 |
| 20260509021115 | 51 | 344 | 3.0 | 4.0 | 0.00 | 0.00 | 0.00 | 59 | 1009.9 |
| 20260509020613 | 51 | 117 | 1.0 | 2.0 | 0.00 | 0.00 | 0.00 | 59 | 1009.8 |
| 20260509020109 | 51 | 110 | 2.0 | 3.0 | 0.00 | 0.00 | 0.00 | 60 | 1009.7 |
| 20260509015609 | 51 | 81 | 1.0 | 1.0 | 0.00 | 0.00 | 0.00 | 59 | 1009.8 |
| 20260509015106 | 51 | 61 | 1.0 | 2.0 | 0.00 | 0.00 | 0.00 | 59 | 1009.6 |
| 20260509014602 | 51 | 86 | 1.0 | 1.0 | 0.00 | 0.00 | 0.00 | 59 | 1009.6 |
| 20260509014059 | 51 | 48 | 2.0 | 3.0 | 0.00 | 0.00 | 0.00 | 59 | 1009.8 |
| 20260509013555 | 51 | 325 | 2.0 | 3.0 | 0.00 | 0.00 | 0.00 | 60 | 1009.7 |
| 20260509013051 | 51 | 331 | 0.0 | 1.0 | 0.00 | 0.00 | 0.00 | 60 | 1009.8 |
| 20260509012548 | 51 | 204 | 0.0 | 1.0 | 0.00 | 0.00 | 0.00 | 60 | 1009.7 |
| 20260509012045 | 51 | 107 | 2.0 | 4.0 | 0.00 | 0.00 | 0.00 | 60 | 1009.7 |
| 20260509011543 | 51 | 337 | 1.0 | 1.0 | 0.00 | 0.00 | 0.00 | 60 | 1009.5 |
| 20260509011040 | 51 | 121 | 3.0 | 4.0 | 0.00 | 0.00 | 0.00 | 60 | 1009.7 |
| 20260509010537 | 51 | 97 | 2.0 | 3.0 | 0.00 | 0.00 | 0.00 | 61 | 1009.6 |
| 20260509010034 | 51 | 120 | 3.0 | 4.0 | 0.00 | 0.00 | 0.00 | 60 | 1009.6 |